Capitol Logistics 84


PHNL
Daniel K Inouye International Airport
Honolulu, Hawaii, US
NZAA
Auckland International Airport
Auckland, , NZ

Route Details

Aircraft Information
Primary: Boeing 747-400BCF
Backup: Boeing 777-200LRF
Route Data
Distance: 3832nm
Sched. Duration: 8h 10m
Avg. Duration: 8h 20m (+10m)
Times Flown: 2
Recm'd Route: OPIHI2 CARRP DATBE G347 DASNE G347 PUPIS G347 AA
Planned Altitude: 32,000ft
Origin Wx: PHNL 272353Z 05015G26KT 10SM -RA FEW025 SCT052 BKN070 24/16 A3011 RMK AO2 PK WND 03026/2349 RAB49 SLP196 P0000 60001 T02440161 10272 20217 56020 VISNO RWY04R $
Dest. Wx: NZAA 280000Z AUTO 21007KT 9999 NCD 25/18 Q1014 NOSIG
Notes:

Financial History
Total Freight: 389,910lbs
Average Load: 194,955lbs/flt
Fuel Used: 323,446lbs
Avg. Fuel Used: 161,723lbs/flt
Fuel Expense: $223,178
Avg. Fuel Expense: $111,589
Avg. Fuel Cost: $0.69/lbs
Total Gross Income: $1,290,602
Pilot Pay: $378
Total Expenses: $139,489
Total Revenue: $923,948
Average Revenue: $645,301.06